Time;durP1;ratioP1;P1;durP2;ratioP2;P2;SDS_P1;SDS_P2;PMS_P1;PMS_P2;Temp;Humidity;BMP_temperature;BMP_pressure;BME280_temperature;BME280_humidity;BME280_pressure;Samples;Min_cycle;Max_cycle;Signal;HPM_P1;HPM_P2
2022/01/21 00:01:18;;;;;;;;;;;22.40;29.30;;;;;;5088507;28;19971;-70
2022/01/21 00:03:45;;;;;;;;;;;22.40;29.30;;;;;;5089627;28;19982;-69
2022/01/21 00:06:12;;;;;;;;;;;22.40;29.30;;;;;;5088885;28;19959;-69
2022/01/21 00:08:40;;;;;;;;;;;22.40;29.30;;;;;;5089125;28;19959;-69
2022/01/21 00:11:08;;;;;;;;;;;22.40;29.30;;;;;;5088186;28;20277;-69
2022/01/21 00:13:37;;;;;;;;;;;22.40;29.30;;;;;;5088700;28;19970;-69
2022/01/21 00:16:05;;;;;;;;;;;22.40;29.30;;;;;;5088384;28;19963;-69
2022/01/21 00:18:33;;;;;;;;;;;22.40;29.30;;;;;;5089037;28;20604;-69
2022/01/21 00:32:09;;;;;;;;;;;22.40;29.40;;;;;;5088014;28;19962;-70
2022/01/21 00:34:36;;;;;;;;;;;22.40;29.50;;;;;;5088753;28;19961;-69
2022/01/21 00:37:03;;;;;;;;;;;22.40;29.50;;;;;;5088083;28;20148;-69
2022/01/21 00:39:32;;;;;;;;;;;22.40;29.50;;;;;;5088497;28;20320;-70
2022/01/21 00:42:10;;;;;;;;;;;22.40;29.50;;;;;;5087970;28;19920;-69
2022/01/21 00:44:37;;;;;;;;;;;22.40;29.50;;;;;;5088370;28;19924;-69
2022/01/21 00:47:04;;;;;;;;;;;22.40;29.50;;;;;;5087931;28;20365;-71
2022/01/21 00:49:31;;;;;;;;;;;22.40;30.00;;;;;;5087270;28;20426;-69
2022/01/21 00:51:58;;;;;;;;;;;22.40;29.50;;;;;;5088048;28;19950;-69
2022/01/21 00:54:25;;;;;;;;;;;22.40;29.60;;;;;;5088445;28;19919;-69
2022/01/21 00:56:52;;;;;;;;;;;22.40;29.60;;;;;;5102812;28;19920;-69
2022/01/21 00:59:19;;;;;;;;;;;22.40;29.60;;;;;;5089055;28;19967;-70
2022/01/21 01:01:46;;;;;;;;;;;22.30;29.50;;;;;;5087051;28;20359;-69
2022/01/21 01:04:13;;;;;;;;;;;22.40;29.60;;;;;;5103672;28;20014;-69
2022/01/21 01:06:40;;;;;;;;;;;22.30;29.50;;;;;;5087562;28;19920;-69
2022/01/21 01:09:07;;;;;;;;;;;22.30;29.60;;;;;;5087791;28;20412;-70
2022/01/21 01:20:00;;;;;;;;;;;22.30;29.60;;;;;;5087716;28;19920;-70
2022/01/21 01:22:54;;;;;;;;;;;22.30;29.60;;;;;;5086655;28;19920;-69
2022/01/21 01:28:08;;;;;;;;;;;22.30;29.60;;;;;;5087407;28;20132;-69
2022/01/21 01:30:36;;;;;;;;;;;22.30;29.60;;;;;;5087501;28;19920;-69
2022/01/21 01:33:06;;;;;;;;;;;22.30;29.60;;;;;;5087030;28;19942;-70
2022/01/21 01:35:33;;;;;;;;;;;22.30;29.60;;;;;;5087458;28;19967;-70
2022/01/21 01:38:23;;;;;;;;;;;22.30;29.60;;;;;;5087183;28;20002;-70
2022/01/21 01:41:00;;;;;;;;;;;22.30;29.60;;;;;;5086878;28;19959;-70
2022/01/21 01:51:45;;;;;;;;;;;22.30;29.60;;;;;;5086394;28;20296;-70
2022/01/21 01:54:13;;;;;;;;;;;22.30;29.60;;;;;;5087665;28;19985;-70
2022/01/21 01:56:42;;;;;;;;;;;22.30;29.60;;;;;;5086397;28;19920;-70
2022/01/21 01:59:09;;;;;;;;;;;22.30;29.60;;;;;;5103004;28;19920;-70
2022/01/21 02:01:36;;;;;;;;;;;22.30;29.60;;;;;;5086079;28;19927;-71
2022/01/21 02:04:04;;;;;;;;;;;22.30;29.50;;;;;;5086550;28;19920;-70
2022/01/21 02:06:31;;;;;;;;;;;22.30;29.50;;;;;;5086776;28;19966;-70
2022/01/21 02:08:59;;;;;;;;;;;22.30;29.50;;;;;;5086179;28;19953;-70
2022/01/21 02:11:26;;;;;;;;;;;22.30;29.50;;;;;;5068838;28;20318;-70
2022/01/21 02:13:58;;;;;;;;;;;22.30;29.50;;;;;;5086424;28;19955;-70
2022/01/21 02:16:37;;;;;;;;;;;22.30;29.50;;;;;;5086324;28;19920;-70
2022/01/21 02:21:51;;;;;;;;;;;22.30;29.50;;;;;;5085307;28;20453;-70
2022/01/21 02:24:22;;;;;;;;;;;22.30;29.50;;;;;;5086813;28;19920;-70
2022/01/21 02:26:50;;;;;;;;;;;22.20;29.30;;;;;;5085858;28;20018;-70
2022/01/21 02:29:27;;;;;;;;;;;22.30;29.20;;;;;;5086938;28;19954;-70
2022/01/21 02:31:59;;;;;;;;;;;22.30;29.20;;;;;;5086201;28;19931;-70
2022/01/21 02:34:27;;;;;;;;;;;22.20;29.10;;;;;;5086275;28;19924;-70
2022/01/21 02:36:54;;;;;;;;;;;22.20;29.10;;;;;;5085997;28;19951;-70
2022/01/21 02:39:21;;;;;;;;;;;22.20;29.00;;;;;;5086501;28;19924;-74
2022/01/21 02:41:48;;;;;;;;;;;22.20;29.00;;;;;;5086539;28;20172;-70
2022/01/21 02:44:17;;;;;;;;;;;22.20;29.00;;;;;;5086080;28;19920;-70
2022/01/21 02:46:45;;;;;;;;;;;22.20;29.00;;;;;;5086345;28;19986;-70
2022/01/21 02:49:13;;;;;;;;;;;22.20;29.00;;;;;;5086174;28;19989;-70
2022/01/21 02:51:40;;;;;;;;;;;22.20;29.00;;;;;;5085792;28;19966;-70
2022/01/21 02:54:07;;;;;;;;;;;22.20;29.00;;;;;;5086655;28;20334;-70
2022/01/21 02:56:36;;;;;;;;;;;22.20;29.00;;;;;;5085407;28;20335;-71
2022/01/21 02:59:03;;;;;;;;;;;22.10;29.00;;;;;;5086194;28;19974;-71
2022/01/21 03:01:33;;;;;;;;;;;22.10;28.90;;;;;;5085611;28;19959;-71
2022/01/21 03:04:01;;;;;;;;;;;22.10;29.00;;;;;;5086485;28;19963;-70
2022/01/21 03:06:28;;;;;;;;;;;22.10;29.00;;;;;;5085905;28;19935;-70
2022/01/21 03:08:57;;;;;;;;;;;22.10;29.00;;;;;;5084907;28;19967;-70
2022/01/21 03:11:25;;;;;;;;;;;22.10;29.00;;;;;;5085957;28;19920;-70
2022/01/21 03:13:53;;;;;;;;;;;22.10;29.00;;;;;;5086023;28;19930;-70
2022/01/21 03:16:20;;;;;;;;;;;22.10;29.00;;;;;;5085865;28;20428;-70
2022/01/21 03:18:47;;;;;;;;;;;22.10;29.40;;;;;;5086417;28;19924;-70
2022/01/21 03:21:17;;;;;;;;;;;22.10;29.00;;;;;;5067844;28;20207;-70
2022/01/21 03:23:46;;;;;;;;;;;22.10;29.10;;;;;;5086532;28;19920;-70
2022/01/21 03:26:15;;;;;;;;;;;22.10;29.10;;;;;;5085088;28;19966;-70
2022/01/21 03:28:42;;;;;;;;;;;22.10;29.50;;;;;;5086712;28;20299;-70
2022/01/21 03:31:09;;;;;;;;;;;22.10;29.10;;;;;;5085437;28;19919;-70
2022/01/21 03:33:37;;;;;;;;;;;22.10;29.10;;;;;;5085917;28;19989;-71
2022/01/21 03:36:04;;;;;;;;;;;22.10;29.10;;;;;;5101273;28;19977;-70
2022/01/21 03:38:31;;;;;;;;;;;22.00;29.50;;;;;;5085521;28;19920;-71
2022/01/21 03:40:58;;;;;;;;;;;22.10;29.10;;;;;;5085793;28;19954;-70
2022/01/21 03:43:25;;;;;;;;;;;22.00;29.00;;;;;;5085422;28;20273;-70
2022/01/21 03:45:53;;;;;;;;;;;22.00;29.00;;;;;;5085332;28;20380;-70
2022/01/21 03:48:20;;;;;;;;;;;22.00;29.00;;;;;;5088840;28;19920;-70
2022/01/21 03:50:48;;;;;;;;;;;22.00;29.00;;;;;;5087721;28;19928;-70
2022/01/21 03:53:15;;;;;;;;;;;22.00;29.00;;;;;;5090046;28;19951;-70
2022/01/21 03:55:42;;;;;;;;;;;22.00;29.00;;;;;;5088673;28;19920;-70
2022/01/21 03:58:10;;;;;;;;;;;22.00;29.00;;;;;;5089579;28;20129;-70
2022/01/21 04:00:38;;;;;;;;;;;22.00;29.00;;;;;;5088893;28;19959;-70
2022/01/21 04:03:06;;;;;;;;;;;22.00;29.00;;;;;;5070925;28;20010;-70
2022/01/21 04:05:34;;;;;;;;;;;22.00;29.00;;;;;;5088613;28;19975;-70
2022/01/21 04:08:03;;;;;;;;;;;22.00;29.00;;;;;;5089015;28;20328;-70
2022/01/21 04:10:30;;;;;;;;;;;22.00;29.00;;;;;;5088789;28;19920;-70
2022/01/21 04:12:57;;;;;;;;;;;22.00;29.00;;;;;;5088738;28;20022;-70
2022/01/21 04:15:24;;;;;;;;;;;22.00;29.10;;;;;;5088180;28;19959;-70
2022/01/21 04:17:51;;;;;;;;;;;22.00;29.10;;;;;;5089322;28;20009;-70
2022/01/21 04:20:18;;;;;;;;;;;22.00;29.10;;;;;;5088288;28;19981;-70
2022/01/21 04:22:48;;;;;;;;;;;21.90;29.10;;;;;;5089168;28;19947;-70
2022/01/21 04:25:15;;;;;;;;;;;21.90;29.10;;;;;;5087903;28;19920;-70
2022/01/21 04:27:42;;;;;;;;;;;21.90;29.10;;;;;;5088779;28;20002;-70
2022/01/21 04:30:09;;;;;;;;;;;21.90;29.20;;;;;;5088404;28;20292;-70
2022/01/21 04:32:36;;;;;;;;;;;21.90;29.10;;;;;;5088808;28;19924;-70
2022/01/21 04:35:03;;;;;;;;;;;21.90;29.20;;;;;;5088678;28;20342;-70
2022/01/21 04:37:30;;;;;;;;;;;21.90;29.20;;;;;;5087750;28;20258;-70
2022/01/21 04:40:12;;;;;;;;;;;21.90;29.20;;;;;;5088212;28;19924;-70
2022/01/21 04:48:14;;;;;;;;;;;21.90;29.20;;;;;;5088980;28;19951;-71
2022/01/21 04:50:53;;;;;;;;;;;21.90;29.20;;;;;;5086630;28;20399;-70
2022/01/21 04:53:20;;;;;;;;;;;21.90;29.20;;;;;;5087459;28;19955;-70
2022/01/21 04:55:47;;;;;;;;;;;21.90;29.20;;;;;;5087035;28;20145;-70
2022/01/21 04:58:14;;;;;;;;;;;21.90;29.20;;;;;;5088206;28;19982;-70
2022/01/21 05:00:43;;;;;;;;;;;21.90;29.30;;;;;;5087747;28;20019;-71
2022/01/21 05:03:11;;;;;;;;;;;21.90;29.30;;;;;;5087819;28;19927;-70
2022/01/21 05:05:38;;;;;;;;;;;21.90;29.30;;;;;;5087729;28;19923;-70
2022/01/21 05:08:09;;;;;;;;;;;21.90;29.30;;;;;;5087252;28;20007;-70
2022/01/21 05:10:37;;;;;;;;;;;21.90;29.30;;;;;;5087451;28;20377;-70
2022/01/21 05:13:05;;;;;;;;;;;21.90;29.30;;;;;;5087974;28;19920;-70
2022/01/21 05:15:57;;;;;;;;;;;21.90;29.30;;;;;;5087100;28;19963;-70
2022/01/21 05:18:18;;;;;;;;;;;21.90;29.30;;;;;;5087645;28;19924;-70
2022/01/21 05:20:45;;;;;;;;;;;21.90;29.30;;;;;;5087232;28;20038;-70
2022/01/21 05:23:12;;;;;;;;;;;21.90;29.30;;;;;;5088164;28;19920;-70
2022/01/21 05:25:39;;;;;;;;;;;21.90;29.30;;;;;;5085810;28;20005;-71
2022/01/21 05:28:06;;;;;;;;;;;21.90;29.30;;;;;;5087289;28;20395;-71
2022/01/21 05:30:33;;;;;;;;;;;21.90;29.30;;;;;;5086730;28;20393;-71
2022/01/21 05:33:00;;;;;;;;;;;21.90;29.30;;;;;;5086143;28;20096;-70
2022/01/21 05:35:27;;;;;;;;;;;21.90;29.30;;;;;;5087039;28;19920;-70
2022/01/21 05:37:54;;;;;;;;;;;21.90;29.30;;;;;;5087438;28;19920;-70
2022/01/21 05:40:23;;;;;;;;;;;22.00;29.30;;;;;;5087127;28;20334;-71
2022/01/21 05:42:51;;;;;;;;;;;21.90;29.20;;;;;;5087338;28;19919;-72
2022/01/21 05:48:04;;;;;;;;;;;21.90;29.20;;;;;;5087519;28;19924;-71
2022/01/21 05:50:31;;;;;;;;;;;21.90;29.10;;;;;;5087426;28;19973;-69
2022/01/21 05:53:04;;;;;;;;;;;21.90;29.10;;;;;;5104972;28;19983;-70
2022/01/21 05:55:31;;;;;;;;;;;21.90;29.10;;;;;;5088698;28;19978;-69
2022/01/21 05:57:58;;;;;;;;;;;21.90;29.10;;;;;;5088160;28;19924;-69
2022/01/21 06:00:25;;;;;;;;;;;21.90;29.10;;;;;;5088024;28;19954;-70
2022/01/21 06:02:52;;;;;;;;;;;21.90;29.00;;;;;;5088501;28;19928;-69
2022/01/21 06:05:20;;;;;;;;;;;21.90;29.00;;;;;;5087871;28;19920;-72
2022/01/21 06:07:47;;;;;;;;;;;21.90;29.00;;;;;;5087458;28;19920;-70
2022/01/21 06:10:14;;;;;;;;;;;21.80;28.90;;;;;;5088912;28;19956;-72
2022/01/21 06:12:41;;;;;;;;;;;21.80;28.80;;;;;;5094467;28;19920;-72
2022/01/21 06:15:08;;;;;;;;;;;21.80;28.80;;;;;;5087263;28;20442;-73
2022/01/21 06:20:59;;;;;;;;;;;21.80;28.70;;;;;;5080624;28;20475;-66
2022/01/21 06:23:27;;;;;;;;;;;21.80;28.90;;;;;;5095812;28;19962;-67
2022/01/21 06:25:53;;;;;;;;;;;21.80;28.90;;;;;;5084240;28;19920;-67
2022/01/21 06:28:21;;;;;;;;;;;21.80;28.80;;;;;;5087735;28;19920;-64
2022/01/21 06:30:49;;;;;;;;;;;21.80;28.80;;;;;;5091514;28;19997;-64
2022/01/21 06:33:16;;;;;;;;;;;21.90;28.80;;;;;;5087197;28;20024;-67
2022/01/21 06:35:43;;;;;;;;;;;21.80;28.70;;;;;;5082859;28;19955;-64
2022/01/21 06:38:10;;;;;;;;;;;22.00;28.70;;;;;;5084508;28;19923;-69
2022/01/21 06:40:37;;;;;;;;;;;22.00;28.70;;;;;;5065622;28;19962;-70
2022/01/21 06:43:21;;;;;;;;;;;22.10;28.60;;;;;;5084470;28;19927;-72
2022/01/21 06:45:48;;;;;;;;;;;22.10;28.50;;;;;;5080924;28;20592;-70
2022/01/21 06:48:15;;;;;;;;;;;22.20;28.40;;;;;;5086346;28;20011;-73
2022/01/21 06:50:42;;;;;;;;;;;22.20;28.20;;;;;;5088793;28;20122;-75
2022/01/21 06:53:09;;;;;;;;;;;22.30;28.10;;;;;;5083610;28;19942;-70
2022/01/21 06:55:37;;;;;;;;;;;22.30;28.10;;;;;;5082891;28;20015;-72
2022/01/21 06:58:05;;;;;;;;;;;22.40;28.20;;;;;;5085777;28;19963;-65
2022/01/21 07:00:32;;;;;;;;;;;22.50;28.20;;;;;;5090031;28;19920;-70
2022/01/21 07:02:59;;;;;;;;;;;22.60;28.70;;;;;;5086953;28;19920;-63
2022/01/21 07:05:29;;;;;;;;;;;22.60;28.80;;;;;;5078966;28;19932;-64
2022/01/21 07:07:58;;;;;;;;;;;22.70;28.90;;;;;;5082482;28;19920;-75
2022/01/21 07:10:25;;;;;;;;;;;22.80;29.00;;;;;;5081423;28;19924;-72
2022/01/21 07:12:52;;;;;;;;;;;22.80;28.90;;;;;;5088897;28;19946;-65
2022/01/21 07:15:19;;;;;;;;;;;22.90;29.00;;;;;;5083902;28;19927;-65
2022/01/21 07:17:48;;;;;;;;;;;23.00;29.00;;;;;;5084638;28;19942;-64
2022/01/21 07:20:16;;;;;;;;;;;23.10;28.70;;;;;;5089093;28;19966;-69
2022/01/21 07:22:43;;;;;;;;;;;23.20;28.50;;;;;;5091091;28;19924;-67
2022/01/21 07:25:10;;;;;;;;;;;23.20;28.50;;;;;;5088618;28;19942;-66
2022/01/21 07:27:37;;;;;;;;;;;23.20;28.30;;;;;;5093171;28;19920;-65
2022/01/21 07:30:05;;;;;;;;;;;23.20;28.10;;;;;;5093757;28;19953;-68
2022/01/21 07:32:32;;;;;;;;;;;23.30;28.00;;;;;;5092573;28;19955;-65
2022/01/21 07:34:59;;;;;;;;;;;23.30;28.00;;;;;;5088315;28;20343;-68
2022/01/21 07:44:09;;;;;;;;;;;23.30;27.90;;;;;;5087794;28;20373;-68
2022/01/21 07:46:36;;;;;;;;;;;23.40;27.90;;;;;;5086117;28;19932;-67
2022/01/21 07:49:03;;;;;;;;;;;23.40;27.90;;;;;;5088948;28;19919;-66
2022/01/21 07:51:30;;;;;;;;;;;23.40;27.80;;;;;;5092519;28;20010;-66
2022/01/21 07:53:57;;;;;;;;;;;23.40;27.70;;;;;;5091665;28;20352;-70
2022/01/21 07:56:24;;;;;;;;;;;23.40;27.60;;;;;;5084102;28;19963;-71
2022/01/21 07:58:51;;;;;;;;;;;23.40;27.50;;;;;;5088186;28;19986;-73
2022/01/21 08:01:18;;;;;;;;;;;23.50;27.40;;;;;;5091622;28;19920;-69
2022/01/21 08:03:46;;;;;;;;;;;23.50;27.30;;;;;;5087365;28;20006;-68
2022/01/21 08:06:13;;;;;;;;;;;23.50;27.40;;;;;;5077625;28;20192;-72
2022/01/21 08:08:40;;;;;;;;;;;23.50;27.30;;;;;;5101849;28;19927;-74
2022/01/21 08:11:07;;;;;;;;;;;23.50;27.20;;;;;;5111751;28;19963;-68
2022/01/21 08:13:34;;;;;;;;;;;23.50;27.20;;;;;;5107095;28;19982;-68
2022/01/21 08:16:01;;;;;;;;;;;23.50;27.30;;;;;;5111375;28;19919;-71
2022/01/21 08:18:28;;;;;;;;;;;23.50;27.60;;;;;;5077969;28;19926;-76
2022/01/21 08:20:55;;;;;;;;;;;23.60;27.90;;;;;;5093065;28;19924;-70
2022/01/21 08:23:22;;;;;;;;;;;23.60;28.00;;;;;;5088927;28;19966;-70
2022/01/21 08:25:51;;;;;;;;;;;23.60;28.10;;;;;;5081750;28;19924;-68
2022/01/21 08:28:18;;;;;;;;;;;23.70;28.20;;;;;;5079529;28;19932;-77
2022/01/21 08:30:45;;;;;;;;;;;23.70;28.10;;;;;;5083376;28;20418;-76
2022/01/21 08:33:12;;;;;;;;;;;23.80;28.30;;;;;;5083075;28;20007;-76
2022/01/21 08:35:44;;;;;;;;;;;23.80;28.30;;;;;;5085165;28;20023;-77
2022/01/21 08:38:11;;;;;;;;;;;23.80;28.30;;;;;;5083451;28;20365;-74
2022/01/21 08:40:38;;;;;;;;;;;23.90;28.30;;;;;;5084583;28;20322;-73
2022/01/21 08:43:05;;;;;;;;;;;23.90;28.30;;;;;;5083921;28;19919;-73
2022/01/21 08:45:32;;;;;;;;;;;23.90;28.30;;;;;;5084334;28;19955;-76
2022/01/21 08:48:00;;;;;;;;;;;23.90;28.30;;;;;;5101496;28;19924;-70
2022/01/21 08:50:27;;;;;;;;;;;23.90;28.20;;;;;;5066924;28;19931;-75
2022/01/21 08:53:06;;;;;;;;;;;24.00;28.20;;;;;;5085718;28;19920;-73
2022/01/21 08:55:37;;;;;;;;;;;24.00;28.20;;;;;;5086976;28;20354;-73
2022/01/21 08:58:04;;;;;;;;;;;24.10;28.20;;;;;;5084516;28;19973;-69
2022/01/21 09:00:31;;;;;;;;;;;24.10;28.00;;;;;;5082710;28;20010;-69
2022/01/21 09:02:58;;;;;;;;;;;24.10;27.80;;;;;;5086502;28;19963;-65
2022/01/21 09:05:26;;;;;;;;;;;24.10;27.50;;;;;;5087604;28;19935;-71
2022/01/21 09:07:53;;;;;;;;;;;24.10;27.20;;;;;;5081831;28;19967;-74
2022/01/21 09:10:20;;;;;;;;;;;24.10;27.10;;;;;;5086559;28;19977;-72
2022/01/21 09:12:46;;;;;;;;;;;24.10;27.30;;;;;;5087393;28;19927;-71
2022/01/21 09:15:13;;;;;;;;;;;24.10;27.40;;;;;;5091541;28;19928;-74
2022/01/21 09:21:03;;;;;;;;;;;24.20;27.60;;;;;;5088321;28;20392;-76
2022/01/21 09:23:32;;;;;;;;;;;24.20;27.50;;;;;;5085593;28;19924;-76
2022/01/21 09:25:59;;;;;;;;;;;24.20;27.50;;;;;;5090839;28;19924;-72
2022/01/21 09:28:26;;;;;;;;;;;24.20;27.50;;;;;;5090691;28;20421;-75
2022/01/21 09:30:53;;;;;;;;;;;24.30;27.60;;;;;;5066412;28;19966;-75
2022/01/21 09:33:20;;;;;;;;;;;24.30;27.50;;;;;;5087672;28;20549;-74
2022/01/21 09:35:47;;;;;;;;;;;24.30;27.40;;;;;;5091653;28;19971;-73
2022/01/21 09:38:15;;;;;;;;;;;24.30;27.30;;;;;;5089160;28;19920;-70
2022/01/21 09:40:45;;;;;;;;;;;24.30;27.10;;;;;;5084757;28;20288;-70
2022/01/21 09:43:12;;;;;;;;;;;24.30;27.20;;;;;;5086233;28;20365;-73
2022/01/21 09:45:40;;;;;;;;;;;24.30;27.40;;;;;;5090706;28;19924;-71
2022/01/21 09:48:09;;;;;;;;;;;24.30;27.50;;;;;;5090321;28;19942;-70
2022/01/21 09:50:37;;;;;;;;;;;24.30;27.50;;;;;;5083971;28;19974;-74
2022/01/21 09:53:05;;;;;;;;;;;24.30;27.50;;;;;;5071245;28;20190;-72
2022/01/21 09:55:33;;;;;;;;;;;24.40;27.40;;;;;;5089643;28;20058;-73
2022/01/21 09:58:00;;;;;;;;;;;24.30;27.40;;;;;;5089918;28;19978;-75
2022/01/21 10:00:27;;;;;;;;;;;24.30;27.10;;;;;;5089738;28;19990;-70
2022/01/21 10:02:57;;;;;;;;;;;24.30;27.20;;;;;;5086762;28;19920;-68
2022/01/21 10:05:24;;;;;;;;;;;24.30;27.10;;;;;;5090482;28;19920;-73
2022/01/21 10:07:51;;;;;;;;;;;24.30;26.70;;;;;;5090764;28;19963;-70
2022/01/21 10:10:19;;;;;;;;;;;24.30;26.70;;;;;;5090152;28;20444;-73
2022/01/21 10:12:49;;;;;;;;;;;24.30;26.70;;;;;;5085699;28;19927;-70
2022/01/21 10:15:17;;;;;;;;;;;24.30;27.20;;;;;;5090691;28;19969;-69
2022/01/21 10:18:07;;;;;;;;;;;24.30;26.70;;;;;;5090142;28;19920;-68
2022/01/21 10:20:37;;;;;;;;;;;24.30;26.60;;;;;;5089480;28;20018;-68
2022/01/21 10:23:06;;;;;;;;;;;24.30;26.50;;;;;;5088953;28;19991;-72
2022/01/21 10:25:34;;;;;;;;;;;24.30;26.50;;;;;;5109251;28;19919;-70
2022/01/21 10:28:10;;;;;;;;;;;24.30;26.60;;;;;;5108647;28;20030;-68
2022/01/21 10:30:37;;;;;;;;;;;24.30;26.70;;;;;;5110084;28;19959;-70
2022/01/21 10:33:22;;;;;;;;;;;24.30;26.60;;;;;;5086941;28;19926;-66
2022/01/21 10:35:51;;;;;;;;;;;24.30;26.60;;;;;;5089236;28;19924;-68
2022/01/21 10:38:22;;;;;;;;;;;24.30;26.60;;;;;;5089284;28;19957;-73
2022/01/21 10:40:50;;;;;;;;;;;24.30;26.60;;;;;;5089354;28;19924;-67
2022/01/21 10:43:20;;;;;;;;;;;24.30;26.40;;;;;;5086695;28;20283;-66
2022/01/21 10:45:52;;;;;;;;;;;24.30;26.50;;;;;;5089372;28;19926;-68
2022/01/21 10:48:19;;;;;;;;;;;24.20;26.20;;;;;;5089253;28;19920;-68
2022/01/21 10:51:06;;;;;;;;;;;24.20;25.90;;;;;;5089308;28;19920;-69
2022/01/21 10:53:33;;;;;;;;;;;24.20;25.80;;;;;;5085580;28;20324;-65
2022/01/21 10:56:11;;;;;;;;;;;24.10;25.60;;;;;;5090508;28;19970;-66
2022/01/21 10:58:40;;;;;;;;;;;24.10;25.60;;;;;;5093242;28;20010;-68
2022/01/21 11:01:12;;;;;;;;;;;24.10;25.50;;;;;;5091400;28;19925;-68
2022/01/21 11:03:54;;;;;;;;;;;24.10;25.40;;;;;;5089441;28;20449;-67
2022/01/21 11:06:24;;;;;;;;;;;24.20;25.50;;;;;;5092447;28;19973;-69
2022/01/21 11:09:10;;;;;;;;;;;24.20;25.40;;;;;;5093448;28;20432;-70
2022/01/21 11:11:37;;;;;;;;;;;24.20;25.20;;;;;;5093074;28;19920;-70
2022/01/21 11:14:12;;;;;;;;;;;24.30;25.00;;;;;;5090491;28;19956;-70
2022/01/21 11:16:42;;;;;;;;;;;24.30;24.90;;;;;;5093285;28;19981;-70
2022/01/21 11:19:34;;;;;;;;;;;24.20;24.70;;;;;;5077868;28;19988;-65
2022/01/21 11:22:04;;;;;;;;;;;24.20;24.50;;;;;;5091374;28;19931;-69
2022/01/21 11:24:31;;;;;;;;;;;24.20;24.40;;;;;;5072497;28;19982;-71
2022/01/21 11:27:09;;;;;;;;;;;24.20;24.40;;;;;;5073165;28;19943;-71
2022/01/21 11:29:37;;;;;;;;;;;24.20;24.50;;;;;;5076999;28;19962;-70
2022/01/21 11:32:04;;;;;;;;;;;24.10;24.40;;;;;;5076539;28;19920;-70
2022/01/21 11:34:32;;;;;;;;;;;24.20;24.40;;;;;;5076665;28;19921;-70
2022/01/21 11:37:00;;;;;;;;;;;24.10;24.30;;;;;;5076633;28;19924;-70
2022/01/21 11:39:29;;;;;;;;;;;24.10;24.30;;;;;;5076500;28;19920;-69
2022/01/21 11:41:57;;;;;;;;;;;24.10;24.20;;;;;;5076618;28;20378;-67
2022/01/21 11:44:27;;;;;;;;;;;24.10;24.30;;;;;;5091867;28;19921;-66
2022/01/21 11:47:02;;;;;;;;;;;24.10;24.30;;;;;;5076805;28;19920;-65
2022/01/21 11:49:32;;;;;;;;;;;24.10;24.40;;;;;;5076530;28;19974;-69
2022/01/21 11:52:21;;;;;;;;;;;24.10;24.50;;;;;;5076331;28;20388;-69
2022/01/21 11:54:48;;;;;;;;;;;24.20;24.50;;;;;;5076253;28;19920;-66
2022/01/21 11:57:16;;;;;;;;;;;24.20;24.50;;;;;;5076308;28;19927;-69
2022/01/21 11:59:53;;;;;;;;;;;24.20;24.90;;;;;;5076340;28;20436;-64
2022/01/21 12:02:27;;;;;;;;;;;24.20;25.20;;;;;;5071226;28;19990;-69
2022/01/21 12:05:02;;;;;;;;;;;24.30;25.50;;;;;;5072195;28;19921;-70
2022/01/21 12:07:45;;;;;;;;;;;24.30;25.50;;;;;;5079243;28;19938;-74
2022/01/21 12:10:14;;;;;;;;;;;24.30;25.60;;;;;;5073796;28;20261;-74
2022/01/21 12:13:06;;;;;;;;;;;24.30;25.80;;;;;;5092274;28;19993;-69
2022/01/21 12:16:20;;;;;;;;;;;24.30;25.90;;;;;;5105122;28;20003;-75
2022/01/21 12:19:09;;;;;;;;;;;24.30;25.70;;;;;;5087199;28;19920;-75
2022/01/21 12:21:38;;;;;;;;;;;24.30;25.70;;;;;;5088471;28;19943;-71
2022/01/21 12:24:05;;;;;;;;;;;24.30;25.60;;;;;;5090871;28;19995;-76
2022/01/21 12:26:32;;;;;;;;;;;24.30;25.50;;;;;;5092027;28;19920;-74
2022/01/21 12:29:19;;;;;;;;;;;24.30;25.60;;;;;;5089904;28;19920;-76
2022/01/21 12:31:55;;;;;;;;;;;24.30;25.60;;;;;;5098747;27;19949;-69
2022/01/21 12:41:27;;;;;;;;;;;24.40;25.60;;;;;;5093595;28;19984;-67
2022/01/21 12:44:01;;;;;;;;;;;24.40;25.60;;;;;;5102102;28;19924;-66
2022/01/21 12:46:30;;;;;;;;;;;24.40;25.50;;;;;;5091740;28;19992;-71
2022/01/21 12:48:59;;;;;;;;;;;24.40;25.50;;;;;;5089706;28;19924;-64
2022/01/21 12:51:45;;;;;;;;;;;24.40;25.50;;;;;;5079571;28;19932;-64
2022/01/21 12:56:59;;;;;;;;;;;24.50;25.90;;;;;;5087372;28;20452;-67
2022/01/21 12:59:29;;;;;;;;;;;24.50;26.30;;;;;;5085921;28;20384;-67
2022/01/21 13:01:59;;;;;;;;;;;24.50;26.50;;;;;;5082431;28;19928;-67
2022/01/21 13:04:46;;;;;;;;;;;24.50;26.30;;;;;;5090251;28;19920;-66
2022/01/21 13:07:19;;;;;;;;;;;24.50;26.10;;;;;;5086119;28;19925;-66
2022/01/21 13:10:00;;;;;;;;;;;24.50;25.80;;;;;;5088884;28;19928;-65
2022/01/21 13:19:00;;;;;;;;;;;24.30;25.10;;;;;;5090508;28;19920;-65
2022/01/21 13:21:27;;;;;;;;;;;24.30;24.90;;;;;;5086773;28;19928;-66
2022/01/21 13:23:59;;;;;;;;;;;24.30;24.70;;;;;;5086076;28;20036;-66
2022/01/21 13:26:31;;;;;;;;;;;24.20;24.70;;;;;;5090946;28;19920;-65
2022/01/21 13:29:12;;;;;;;;;;;24.20;24.70;;;;;;5072221;28;19931;-65
2022/01/21 13:31:53;;;;;;;;;;;24.10;24.60;;;;;;5085216;28;19970;-63
2022/01/21 13:34:24;;;;;;;;;;;24.10;24.60;;;;;;5088461;28;19920;-66
2022/01/21 13:36:53;;;;;;;;;;;24.10;24.50;;;;;;5089086;28;19990;-64
2022/01/21 13:39:21;;;;;;;;;;;24.00;24.50;;;;;;5089200;28;19927;-64
2022/01/21 13:41:49;;;;;;;;;;;24.00;24.50;;;;;;5086150;28;19967;-65
2022/01/21 13:44:25;;;;;;;;;;;23.90;24.50;;;;;;5089001;28;20193;-64
2022/01/21 13:46:53;;;;;;;;;;;23.90;24.50;;;;;;5106036;28;20395;-63
2022/01/21 13:49:20;;;;;;;;;;;23.90;24.50;;;;;;5105407;28;20020;-64
2022/01/21 13:51:59;;;;;;;;;;;23.90;24.60;;;;;;5084629;28;20095;-65
2022/01/21 13:54:34;;;;;;;;;;;23.80;24.50;;;;;;5088694;28;20040;-62
2022/01/21 13:57:02;;;;;;;;;;;23.80;24.50;;;;;;5089538;28;20436;-66
2022/01/21 13:59:30;;;;;;;;;;;23.80;24.60;;;;;;5089055;28;19954;-66
2022/01/21 14:02:04;;;;;;;;;;;23.80;24.70;;;;;;5083816;28;20020;-66
2022/01/21 14:04:31;;;;;;;;;;;23.80;24.80;;;;;;5088720;28;19978;-65
2022/01/21 14:06:58;;;;;;;;;;;23.70;24.70;;;;;;5082408;28;19978;-64
2022/01/21 14:09:25;;;;;;;;;;;23.70;24.60;;;;;;5088302;28;20003;-64
2022/01/21 14:11:57;;;;;;;;;;;23.70;24.80;;;;;;5082726;28;19928;-64
2022/01/21 14:14:25;;;;;;;;;;;23.70;25.20;;;;;;5088190;28;19978;-64
2022/01/21 14:16:56;;;;;;;;;;;23.60;25.70;;;;;;5084012;28;20435;-64
2022/01/21 14:19:24;;;;;;;;;;;23.60;26.20;;;;;;5087696;28;20324;-64
2022/01/21 14:22:00;;;;;;;;;;;23.60;26.50;;;;;;5083332;28;20356;-64
2022/01/21 14:24:27;;;;;;;;;;;23.60;26.70;;;;;;5087654;28;19928;-64
2022/01/21 14:26:57;;;;;;;;;;;23.60;26.60;;;;;;5082925;28;20037;-64
2022/01/21 14:29:29;;;;;;;;;;;23.60;26.50;;;;;;5087641;28;19971;-64
2022/01/21 14:32:00;;;;;;;;;;;23.50;26.20;;;;;;5082339;28;20018;-64
2022/01/21 14:34:29;;;;;;;;;;;23.50;26.10;;;;;;5088577;28;19957;-64
2022/01/21 14:37:01;;;;;;;;;;;23.50;25.90;;;;;;5083571;28;20376;-64
2022/01/21 14:39:32;;;;;;;;;;;23.50;25.70;;;;;;5088294;28;19981;-64
2022/01/21 14:41:59;;;;;;;;;;;23.50;25.50;;;;;;5084837;28;19963;-64
2022/01/21 14:44:40;;;;;;;;;;;23.50;25.40;;;;;;5088706;28;20011;-64
2022/01/21 14:47:11;;;;;;;;;;;23.50;25.30;;;;;;5084800;28;19960;-64
2022/01/21 14:49:39;;;;;;;;;;;23.40;25.10;;;;;;5089681;28;19920;-64
2022/01/21 14:54:54;;;;;;;;;;;23.40;24.80;;;;;;5089505;28;19934;-64
2022/01/21 14:57:28;;;;;;;;;;;23.40;24.80;;;;;;5085292;28;19928;-65
2022/01/21 14:59:57;;;;;;;;;;;23.30;24.60;;;;;;5088869;28;20011;-64
2022/01/21 15:02:31;;;;;;;;;;;23.30;24.60;;;;;;5084218;28;19959;-64
2022/01/21 15:05:01;;;;;;;;;;;23.30;24.50;;;;;;5068981;28;19921;-64
2022/01/21 15:07:29;;;;;;;;;;;23.30;24.50;;;;;;5065449;28;20450;-64
2022/01/21 15:10:00;;;;;;;;;;;23.20;24.40;;;;;;5069109;28;19920;-64
2022/01/21 15:15:28;;;;;;;;;;;23.20;24.30;;;;;;5068566;28;19982;-64
2022/01/21 15:21:32;;;;;;;;;;;23.10;24.20;;;;;;5066478;28;20002;-64
2022/01/21 15:23:59;;;;;;;;;;;23.10;24.20;;;;;;5067863;28;20422;-64
2022/01/21 15:26:45;;;;;;;;;;;23.10;24.20;;;;;;5065667;28;19920;-64
2022/01/21 15:29:12;;;;;;;;;;;23.00;24.20;;;;;;5068319;28;19920;-64
2022/01/21 15:31:39;;;;;;;;;;;23.00;24.10;;;;;;5067319;28;20190;-64
2022/01/21 15:34:08;;;;;;;;;;;23.00;24.10;;;;;;5088507;28;19924;-64
2022/01/21 15:36:40;;;;;;;;;;;23.00;24.10;;;;;;5085923;28;19935;-64
2022/01/21 15:39:07;;;;;;;;;;;23.00;24.30;;;;;;5088321;28;19920;-64
2022/01/21 15:41:33;;;;;;;;;;;22.90;24.00;;;;;;5086624;28;20349;-64
2022/01/21 15:44:01;;;;;;;;;;;22.90;24.00;;;;;;5074075;28;19971;-64
2022/01/21 15:46:28;;;;;;;;;;;22.90;24.00;;;;;;5090428;28;19923;-67
2022/01/21 15:48:55;;;;;;;;;;;22.90;24.00;;;;;;5091307;28;19920;-64
2022/01/21 15:51:22;;;;;;;;;;;22.90;24.00;;;;;;5089719;28;19924;-64